sensor_id;sensor_type;location;lat;lon;timestamp;P1;durP1;ratioP1;P2;durP2;ratioP2
72087;SDS011;59961;50.232;8.616;2022-09-09T00:04:19;4.27;;;0.77;;
72087;SDS011;59961;50.232;8.616;2022-09-09T00:09:21;2.63;;;0.98;;
72087;SDS011;59961;50.232;8.616;2022-09-09T00:12:04;4.80;;;1.20;;
72087;SDS011;59961;50.232;8.616;2022-09-09T00:17:25;4.07;;;0.90;;
72087;SDS011;59961;50.232;8.616;2022-09-09T00:20:03;3.45;;;1.10;;
72087;SDS011;59961;50.232;8.616;2022-09-09T00:22:30;3.05;;;1.20;;
72087;SDS011;59961;50.232;8.616;2022-09-09T00:25:11;3.53;;;1.17;;
72087;SDS011;59961;50.232;8.616;2022-09-09T00:27:40;4.10;;;1.40;;
72087;SDS011;59961;50.232;8.616;2022-09-09T00:30:17;4.37;;;0.90;;
72087;SDS011;59961;50.232;8.616;2022-09-09T00:32:44;4.88;;;1.02;;
72087;SDS011;59961;50.232;8.616;2022-09-09T00:35:14;2.90;;;0.90;;
72087;SDS011;59961;50.232;8.616;2022-09-09T00:37:41;5.05;;;1.65;;
72087;SDS011;59961;50.232;8.616;2022-09-09T00:40:18;3.03;;;0.80;;
72087;SDS011;59961;50.232;8.616;2022-09-09T00:42:47;3.50;;;0.95;;
72087;SDS011;59961;50.232;8.616;2022-09-09T00:47:49;2.40;;;1.10;;
72087;SDS011;59961;50.232;8.616;2022-09-09T00:53:09;4.10;;;1.00;;
72087;SDS011;59961;50.232;8.616;2022-09-09T00:55:39;3.58;;;0.90;;
72087;SDS011;59961;50.232;8.616;2022-09-09T00:58:06;2.83;;;0.83;;
72087;SDS011;59961;50.232;8.616;2022-09-09T01:00:35;2.25;;;0.93;;
72087;SDS011;59961;50.232;8.616;2022-09-09T01:03:07;6.05;;;1.40;;
72087;SDS011;59961;50.232;8.616;2022-09-09T01:05:37;3.40;;;0.95;;
72087;SDS011;59961;50.232;8.616;2022-09-09T01:08:09;2.28;;;0.95;;
72087;SDS011;59961;50.232;8.616;2022-09-09T01:10:52;2.47;;;0.93;;
72087;SDS011;59961;50.232;8.616;2022-09-09T01:13:28;3.63;;;0.88;;
72087;SDS011;59961;50.232;8.616;2022-09-09T01:15:58;2.95;;;0.77;;
72087;SDS011;59961;50.232;8.616;2022-09-09T01:18:37;2.28;;;1.20;;
72087;SDS011;59961;50.232;8.616;2022-09-09T01:21:09;4.32;;;1.20;;
72087;SDS011;59961;50.232;8.616;2022-09-09T01:23:56;2.63;;;0.97;;
72087;SDS011;59961;50.232;8.616;2022-09-09T01:26:26;3.90;;;1.13;;
72087;SDS011;59961;50.232;8.616;2022-09-09T01:28:53;2.35;;;1.10;;
72087;SDS011;59961;50.232;8.616;2022-09-09T01:31:27;2.67;;;1.10;;
72087;SDS011;59961;50.232;8.616;2022-09-09T01:33:53;4.23;;;1.50;;
72087;SDS011;59961;50.232;8.616;2022-09-09T01:39:02;4.80;;;1.30;;
72087;SDS011;59961;50.232;8.616;2022-09-09T01:41:27;3.47;;;1.23;;
72087;SDS011;59961;50.232;8.616;2022-09-09T01:43:53;1.87;;;1.17;;
72087;SDS011;59961;50.232;8.616;2022-09-09T01:46:19;3.83;;;1.40;;
72087;SDS011;59961;50.232;8.616;2022-09-09T01:48:46;4.18;;;1.17;;
72087;SDS011;59961;50.232;8.616;2022-09-09T01:51:11;4.17;;;1.50;;
72087;SDS011;59961;50.232;8.616;2022-09-09T01:53:36;3.33;;;1.53;;
72087;SDS011;59961;50.232;8.616;2022-09-09T01:56:04;5.05;;;1.45;;
72087;SDS011;59961;50.232;8.616;2022-09-09T02:01:02;3.03;;;1.00;;
72087;SDS011;59961;50.232;8.616;2022-09-09T02:03:31;3.50;;;1.23;;
72087;SDS011;59961;50.232;8.616;2022-09-09T02:08:29;2.20;;;1.20;;
72087;SDS011;59961;50.232;8.616;2022-09-09T02:13:28;5.97;;;1.48;;
72087;SDS011;59961;50.232;8.616;2022-09-09T02:15:58;3.37;;;1.37;;
72087;SDS011;59961;50.232;8.616;2022-09-09T02:18:26;4.72;;;1.50;;
72087;SDS011;59961;50.232;8.616;2022-09-09T02:20:53;3.30;;;1.10;;
72087;SDS011;59961;50.232;8.616;2022-09-09T02:23:18;3.45;;;1.50;;
72087;SDS011;59961;50.232;8.616;2022-09-09T02:25:44;3.73;;;1.10;;
72087;SDS011;59961;50.232;8.616;2022-09-09T02:28:11;3.15;;;1.10;;
72087;SDS011;59961;50.232;8.616;2022-09-09T02:30:37;4.55;;;1.50;;
72087;SDS011;59961;50.232;8.616;2022-09-09T02:33:04;3.45;;;1.20;;
72087;SDS011;59961;50.232;8.616;2022-09-09T02:35:32;3.78;;;1.50;;
72087;SDS011;59961;50.232;8.616;2022-09-09T02:37:59;4.60;;;1.23;;
72087;SDS011;59961;50.232;8.616;2022-09-09T02:40:24;5.25;;;1.58;;
72087;SDS011;59961;50.232;8.616;2022-09-09T02:42:49;3.42;;;1.40;;
72087;SDS011;59961;50.232;8.616;2022-09-09T02:45:18;4.17;;;1.63;;
72087;SDS011;59961;50.232;8.616;2022-09-09T02:47:56;4.97;;;1.40;;
72087;SDS011;59961;50.232;8.616;2022-09-09T02:53:05;4.43;;;1.20;;
72087;SDS011;59961;50.232;8.616;2022-09-09T02:55:43;4.18;;;1.30;;
72087;SDS011;59961;50.232;8.616;2022-09-09T02:58:11;3.55;;;1.40;;
72087;SDS011;59961;50.232;8.616;2022-09-09T03:00:39;3.80;;;1.65;;
72087;SDS011;59961;50.232;8.616;2022-09-09T03:03:07;3.63;;;1.20;;
72087;SDS011;59961;50.232;8.616;2022-09-09T03:05:33;4.70;;;1.45;;
72087;SDS011;59961;50.232;8.616;2022-09-09T03:07:59;2.43;;;1.53;;
72087;SDS011;59961;50.232;8.616;2022-09-09T03:10:24;4.03;;;1.20;;
72087;SDS011;59961;50.232;8.616;2022-09-09T03:12:49;2.63;;;1.20;;
72087;SDS011;59961;50.232;8.616;2022-09-09T03:15:15;3.70;;;1.20;;
72087;SDS011;59961;50.232;8.616;2022-09-09T03:17:40;2.10;;;1.17;;
72087;SDS011;59961;50.232;8.616;2022-09-09T03:20:06;8.63;;;1.40;;
72087;SDS011;59961;50.232;8.616;2022-09-09T03:22:32;2.83;;;1.53;;
72087;SDS011;59961;50.232;8.616;2022-09-09T03:24:57;5.93;;;1.57;;
72087;SDS011;59961;50.232;8.616;2022-09-09T03:27:22;3.58;;;1.30;;
72087;SDS011;59961;50.232;8.616;2022-09-09T03:29:47;4.43;;;1.50;;
72087;SDS011;59961;50.232;8.616;2022-09-09T03:32:15;3.20;;;1.52;;
72087;SDS011;59961;50.232;8.616;2022-09-09T03:34:42;5.05;;;1.23;;
72087;SDS011;59961;50.232;8.616;2022-09-09T03:37:07;4.27;;;1.47;;
72087;SDS011;59961;50.232;8.616;2022-09-09T03:39:32;4.03;;;1.60;;
72087;SDS011;59961;50.232;8.616;2022-09-09T03:41:57;6.55;;;1.30;;
72087;SDS011;59961;50.232;8.616;2022-09-09T03:44:22;5.45;;;1.50;;
72087;SDS011;59961;50.232;8.616;2022-09-09T03:46:48;3.60;;;1.20;;
72087;SDS011;59961;50.232;8.616;2022-09-09T03:49:13;5.15;;;1.40;;
72087;SDS011;59961;50.232;8.616;2022-09-09T03:51:38;4.63;;;1.60;;
72087;SDS011;59961;50.232;8.616;2022-09-09T03:54:04;3.78;;;1.20;;
72087;SDS011;59961;50.232;8.616;2022-09-09T03:56:30;4.23;;;1.63;;
72087;SDS011;59961;50.232;8.616;2022-09-09T03:58:55;5.38;;;1.45;;
72087;SDS011;59961;50.232;8.616;2022-09-09T04:01:20;2.63;;;1.33;;
72087;SDS011;59961;50.232;8.616;2022-09-09T04:03:45;4.47;;;1.20;;
72087;SDS011;59961;50.232;8.616;2022-09-09T04:06:11;7.23;;;1.60;;
72087;SDS011;59961;50.232;8.616;2022-09-09T04:08:38;7.93;;;1.58;;
72087;SDS011;59961;50.232;8.616;2022-09-09T04:11:04;3.58;;;1.30;;
72087;SDS011;59961;50.232;8.616;2022-09-09T04:13:31;2.78;;;1.30;;
72087;SDS011;59961;50.232;8.616;2022-09-09T04:15:57;5.07;;;1.80;;
72087;SDS011;59961;50.232;8.616;2022-09-09T04:18:23;5.05;;;1.50;;
72087;SDS011;59961;50.232;8.616;2022-09-09T04:20:49;3.23;;;1.30;;
72087;SDS011;59961;50.232;8.616;2022-09-09T04:23:15;3.60;;;1.40;;
72087;SDS011;59961;50.232;8.616;2022-09-09T04:25:44;4.40;;;1.38;;
72087;SDS011;59961;50.232;8.616;2022-09-09T04:28:10;2.67;;;1.07;;
72087;SDS011;59961;50.232;8.616;2022-09-09T04:30:35;3.95;;;1.10;;
72087;SDS011;59961;50.232;8.616;2022-09-09T04:33:00;3.50;;;1.60;;
72087;SDS011;59961;50.232;8.616;2022-09-09T04:35:25;3.05;;;1.10;;
72087;SDS011;59961;50.232;8.616;2022-09-09T04:37:52;4.80;;;1.48;;
72087;SDS011;59961;50.232;8.616;2022-09-09T04:40:17;3.38;;;1.15;;
72087;SDS011;59961;50.232;8.616;2022-09-09T04:42:42;4.73;;;1.33;;
72087;SDS011;59961;50.232;8.616;2022-09-09T04:45:08;3.77;;;1.37;;
72087;SDS011;59961;50.232;8.616;2022-09-09T04:47:36;3.05;;;1.30;;
72087;SDS011;59961;50.232;8.616;2022-09-09T04:50:01;3.22;;;1.50;;
72087;SDS011;59961;50.232;8.616;2022-09-09T04:52:26;5.07;;;1.42;;
72087;SDS011;59961;50.232;8.616;2022-09-09T04:54:51;5.00;;;1.50;;
72087;SDS011;59961;50.232;8.616;2022-09-09T04:57:18;5.00;;;1.27;;
72087;SDS011;59961;50.232;8.616;2022-09-09T04:59:44;7.28;;;1.33;;
72087;SDS011;59961;50.232;8.616;2022-09-09T05:02:10;6.10;;;1.40;;
72087;SDS011;59961;50.232;8.616;2022-09-09T05:04:35;3.47;;;1.33;;
72087;SDS011;59961;50.232;8.616;2022-09-09T05:07:01;5.63;;;1.40;;
72087;SDS011;59961;50.232;8.616;2022-09-09T05:09:26;3.47;;;0.93;;
72087;SDS011;59961;50.232;8.616;2022-09-09T05:11:51;3.43;;;1.20;;
72087;SDS011;59961;50.232;8.616;2022-09-09T05:14:16;4.77;;;1.10;;
72087;SDS011;59961;50.232;8.616;2022-09-09T05:16:42;6.28;;;1.70;;
72087;SDS011;59961;50.232;8.616;2022-09-09T05:19:09;3.90;;;1.45;;
72087;SDS011;59961;50.232;8.616;2022-09-09T05:21:34;2.70;;;1.30;;
72087;SDS011;59961;50.232;8.616;2022-09-09T05:23:59;3.65;;;1.30;;
72087;SDS011;59961;50.232;8.616;2022-09-09T05:26:25;5.33;;;1.40;;
72087;SDS011;59961;50.232;8.616;2022-09-09T05:28:50;5.47;;;1.30;;
72087;SDS011;59961;50.232;8.616;2022-09-09T05:31:16;3.28;;;1.33;;
72087;SDS011;59961;50.232;8.616;2022-09-09T05:33:43;4.10;;;1.40;;
72087;SDS011;59961;50.232;8.616;2022-09-09T05:36:12;3.55;;;1.00;;
72087;SDS011;59961;50.232;8.616;2022-09-09T05:38:38;4.47;;;1.40;;
72087;SDS011;59961;50.232;8.616;2022-09-09T05:41:04;2.97;;;1.25;;
72087;SDS011;59961;50.232;8.616;2022-09-09T05:43:29;5.70;;;1.57;;
72087;SDS011;59961;50.232;8.616;2022-09-09T05:46:07;2.37;;;1.10;;
72087;SDS011;59961;50.232;8.616;2022-09-09T05:48:34;3.83;;;1.10;;
72087;SDS011;59961;50.232;8.616;2022-09-09T05:50:59;7.03;;;1.13;;
72087;SDS011;59961;50.232;8.616;2022-09-09T05:53:25;4.13;;;1.30;;
72087;SDS011;59961;50.232;8.616;2022-09-09T05:55:57;2.70;;;1.17;;
72087;SDS011;59961;50.232;8.616;2022-09-09T05:58:23;3.42;;;1.80;;
72087;SDS011;59961;50.232;8.616;2022-09-09T06:00:49;4.85;;;1.58;;
72087;SDS011;59961;50.232;8.616;2022-09-09T06:03:14;5.18;;;1.30;;
72087;SDS011;59961;50.232;8.616;2022-09-09T06:05:39;3.67;;;1.33;;
72087;SDS011;59961;50.232;8.616;2022-09-09T06:08:04;8.30;;;1.53;;
72087;SDS011;59961;50.232;8.616;2022-09-09T06:10:29;2.73;;;1.20;;
72087;SDS011;59961;50.232;8.616;2022-09-09T06:12:54;4.60;;;1.30;;
72087;SDS011;59961;50.232;8.616;2022-09-09T06:15:20;4.13;;;1.48;;
72087;SDS011;59961;50.232;8.616;2022-09-09T06:17:45;4.10;;;1.80;;
72087;SDS011;59961;50.232;8.616;2022-09-09T06:20:10;3.70;;;1.30;;
72087;SDS011;59961;50.232;8.616;2022-09-09T06:22:36;6.28;;;1.88;;
72087;SDS011;59961;50.232;8.616;2022-09-09T06:25:01;3.33;;;1.30;;
72087;SDS011;59961;50.232;8.616;2022-09-09T06:27:27;10.63;;;2.73;;
72087;SDS011;59961;50.232;8.616;2022-09-09T06:29:52;7.70;;;1.87;;
72087;SDS011;59961;50.232;8.616;2022-09-09T06:32:17;3.57;;;1.70;;
72087;SDS011;59961;50.232;8.616;2022-09-09T06:34:42;6.18;;;1.55;;
72087;SDS011;59961;50.232;8.616;2022-09-09T06:37:07;4.37;;;1.90;;
72087;SDS011;59961;50.232;8.616;2022-09-09T06:39:33;4.65;;;1.70;;
72087;SDS011;59961;50.232;8.616;2022-09-09T06:41:58;3.17;;;1.60;;
72087;SDS011;59961;50.232;8.616;2022-09-09T06:44:23;4.65;;;1.77;;
72087;SDS011;59961;50.232;8.616;2022-09-09T06:46:51;6.40;;;1.90;;
72087;SDS011;59961;50.232;8.616;2022-09-09T06:49:17;6.70;;;2.00;;
72087;SDS011;59961;50.232;8.616;2022-09-09T06:51:42;4.30;;;2.10;;
72087;SDS011;59961;50.232;8.616;2022-09-09T06:54:11;5.40;;;1.92;;
72087;SDS011;59961;50.232;8.616;2022-09-09T06:56:37;7.90;;;2.20;;
72087;SDS011;59961;50.232;8.616;2022-09-09T06:59:05;4.38;;;1.80;;
72087;SDS011;59961;50.232;8.616;2022-09-09T07:01:33;4.95;;;1.88;;
72087;SDS011;59961;50.232;8.616;2022-09-09T07:03:59;3.28;;;1.58;;
72087;SDS011;59961;50.232;8.616;2022-09-09T07:06:25;6.23;;;2.00;;
72087;SDS011;59961;50.232;8.616;2022-09-09T07:08:54;9.57;;;2.00;;
72087;SDS011;59961;50.232;8.616;2022-09-09T07:11:20;7.07;;;1.95;;
72087;SDS011;59961;50.232;8.616;2022-09-09T07:13:46;7.43;;;1.80;;
72087;SDS011;59961;50.232;8.616;2022-09-09T07:16:12;4.83;;;1.60;;
72087;SDS011;59961;50.232;8.616;2022-09-09T07:18:39;4.60;;;1.70;;
72087;SDS011;59961;50.232;8.616;2022-09-09T07:21:04;5.78;;;1.63;;
72087;SDS011;59961;50.232;8.616;2022-09-09T07:23:29;3.30;;;1.30;;
72087;SDS011;59961;50.232;8.616;2022-09-09T07:25:55;4.47;;;1.80;;
72087;SDS011;59961;50.232;8.616;2022-09-09T07:28:20;6.03;;;1.20;;
72087;SDS011;59961;50.232;8.616;2022-09-09T07:30:55;6.80;;;1.10;;
72087;SDS011;59961;50.232;8.616;2022-09-09T07:33:21;5.30;;;1.50;;
72087;SDS011;59961;50.232;8.616;2022-09-09T07:35:46;4.37;;;1.10;;
72087;SDS011;59961;50.232;8.616;2022-09-09T07:38:11;3.63;;;1.23;;
72087;SDS011;59961;50.232;8.616;2022-09-09T07:40:36;5.77;;;1.50;;
72087;SDS011;59961;50.232;8.616;2022-09-09T07:43:02;2.87;;;0.97;;
72087;SDS011;59961;50.232;8.616;2022-09-09T07:45:27;3.88;;;0.85;;
72087;SDS011;59961;50.232;8.616;2022-09-09T07:47:57;4.50;;;1.20;;
72087;SDS011;59961;50.232;8.616;2022-09-09T07:50:23;3.40;;;1.07;;
72087;SDS011;59961;50.232;8.616;2022-09-09T07:52:48;4.93;;;1.10;;
72087;SDS011;59961;50.232;8.616;2022-09-09T07:55:13;2.97;;;1.03;;
72087;SDS011;59961;50.232;8.616;2022-09-09T07:57:39;4.95;;;1.13;;
72087;SDS011;59961;50.232;8.616;2022-09-09T08:00:05;4.27;;;1.37;;
72087;SDS011;59961;50.232;8.616;2022-09-09T08:02:30;4.53;;;1.17;;
72087;SDS011;59961;50.232;8.616;2022-09-09T08:04:56;5.40;;;1.37;;
72087;SDS011;59961;50.232;8.616;2022-09-09T08:07:21;4.67;;;1.47;;
72087;SDS011;59961;50.232;8.616;2022-09-09T08:09:47;2.40;;;1.00;;
72087;SDS011;59961;50.232;8.616;2022-09-09T08:12:12;4.30;;;1.13;;
72087;SDS011;59961;50.232;8.616;2022-09-09T08:14:37;4.47;;;1.33;;
72087;SDS011;59961;50.232;8.616;2022-09-09T08:17:03;3.40;;;1.20;;
72087;SDS011;59961;50.232;8.616;2022-09-09T08:19:28;3.87;;;1.00;;
72087;SDS011;59961;50.232;8.616;2022-09-09T08:21:59;4.80;;;1.30;;
72087;SDS011;59961;50.232;8.616;2022-09-09T08:24:24;3.93;;;1.13;;
72087;SDS011;59961;50.232;8.616;2022-09-09T08:26:49;4.72;;;0.93;;
72087;SDS011;59961;50.232;8.616;2022-09-09T08:29:14;4.57;;;1.40;;
72087;SDS011;59961;50.232;8.616;2022-09-09T08:31:49;5.83;;;1.57;;
72087;SDS011;59961;50.232;8.616;2022-09-09T08:34:15;3.63;;;1.30;;
72087;SDS011;59961;50.232;8.616;2022-09-09T08:36:41;5.37;;;1.60;;
72087;SDS011;59961;50.232;8.616;2022-09-09T08:39:07;6.72;;;1.45;;
72087;SDS011;59961;50.232;8.616;2022-09-09T08:46:45;4.28;;;1.25;;
72087;SDS011;59961;50.232;8.616;2022-09-09T08:49:22;7.00;;;1.50;;
72087;SDS011;59961;50.232;8.616;2022-09-09T08:51:50;3.30;;;1.30;;
72087;SDS011;59961;50.232;8.616;2022-09-09T08:54:18;5.93;;;1.50;;
72087;SDS011;59961;50.232;8.616;2022-09-09T08:56:43;6.60;;;1.50;;
72087;SDS011;59961;50.232;8.616;2022-09-09T08:59:09;4.68;;;1.45;;
72087;SDS011;59961;50.232;8.616;2022-09-09T09:01:40;3.70;;;1.40;;
72087;SDS011;59961;50.232;8.616;2022-09-09T09:04:11;9.05;;;1.50;;
72087;SDS011;59961;50.232;8.616;2022-09-09T09:06:46;7.47;;;1.80;;
72087;SDS011;59961;50.232;8.616;2022-09-09T09:09:51;6.47;;;1.63;;
72087;SDS011;59961;50.232;8.616;2022-09-09T09:12:10;7.28;;;2.05;;
72087;SDS011;59961;50.232;8.616;2022-09-09T09:14:39;6.13;;;2.20;;
72087;SDS011;59961;50.232;8.616;2022-09-09T09:17:18;8.90;;;2.20;;
72087;SDS011;59961;50.232;8.616;2022-09-09T09:19:44;12.10;;;2.75;;
72087;SDS011;59961;50.232;8.616;2022-09-09T09:22:16;7.15;;;2.40;;
72087;SDS011;59961;50.232;8.616;2022-09-09T09:24:49;8.35;;;3.03;;
72087;SDS011;59961;50.232;8.616;2022-09-09T09:27:16;9.98;;;3.13;;
72087;SDS011;59961;50.232;8.616;2022-09-09T09:29:43;6.63;;;2.47;;
72087;SDS011;59961;50.232;8.616;2022-09-09T09:32:13;11.68;;;3.42;;
72087;SDS011;59961;50.232;8.616;2022-09-09T09:34:39;12.32;;;4.38;;
72087;SDS011;59961;50.232;8.616;2022-09-09T09:37:16;12.87;;;3.60;;
72087;SDS011;59961;50.232;8.616;2022-09-09T09:39:44;9.63;;;3.67;;
72087;SDS011;59961;50.232;8.616;2022-09-09T09:42:10;11.47;;;3.50;;
72087;SDS011;59961;50.232;8.616;2022-09-09T09:44:38;12.38;;;3.78;;
72087;SDS011;59961;50.232;8.616;2022-09-09T09:49:35;8.52;;;3.72;;
72087;SDS011;59961;50.232;8.616;2022-09-09T09:52:01;9.73;;;3.23;;
72087;SDS011;59961;50.232;8.616;2022-09-09T09:54:28;10.98;;;2.85;;
72087;SDS011;59961;50.232;8.616;2022-09-09T09:56:54;7.05;;;2.78;;
72087;SDS011;59961;50.232;8.616;2022-09-09T09:59:24;6.27;;;2.73;;
72087;SDS011;59961;50.232;8.616;2022-09-09T10:02:20;8.52;;;3.50;;
72087;SDS011;59961;50.232;8.616;2022-09-09T10:04:43;11.60;;;3.70;;
72087;SDS011;59961;50.232;8.616;2022-09-09T10:07:17;9.60;;;3.60;;
72087;SDS011;59961;50.232;8.616;2022-09-09T10:09:42;10.05;;;3.67;;
72087;SDS011;59961;50.232;8.616;2022-09-09T10:22:52;11.43;;;3.92;;
72087;SDS011;59961;50.232;8.616;2022-09-09T10:27:55;11.57;;;4.03;;
72087;SDS011;59961;50.232;8.616;2022-09-09T10:33:10;9.27;;;4.18;;
72087;SDS011;59961;50.232;8.616;2022-09-09T10:35:44;9.47;;;3.90;;
72087;SDS011;59961;50.232;8.616;2022-09-09T10:48:41;10.00;;;4.00;;
72087;SDS011;59961;50.232;8.616;2022-09-09T10:54:03;10.63;;;3.83;;
72087;SDS011;59961;50.232;8.616;2022-09-09T10:56:31;9.65;;;3.50;;
72087;SDS011;59961;50.232;8.616;2022-09-09T10:59:04;9.00;;;3.20;;
72087;SDS011;59961;50.232;8.616;2022-09-09T11:01:35;10.13;;;3.30;;
72087;SDS011;59961;50.232;8.616;2022-09-09T11:04:05;7.77;;;2.87;;
72087;SDS011;59961;50.232;8.616;2022-09-09T11:06:32;6.93;;;2.60;;
72087;SDS011;59961;50.232;8.616;2022-09-09T11:09:00;9.70;;;3.20;;
72087;SDS011;59961;50.232;8.616;2022-09-09T11:11:29;7.95;;;3.10;;
72087;SDS011;59961;50.232;8.616;2022-09-09T11:14:17;7.40;;;3.00;;
72087;SDS011;59961;50.232;8.616;2022-09-09T11:16:46;5.57;;;2.90;;
72087;SDS011;59961;50.232;8.616;2022-09-09T11:19:17;8.60;;;3.05;;
72087;SDS011;59961;50.232;8.616;2022-09-09T11:21:47;8.75;;;2.60;;
72087;SDS011;59961;50.232;8.616;2022-09-09T11:24:18;7.13;;;2.13;;
72087;SDS011;59961;50.232;8.616;2022-09-09T11:26:47;6.88;;;2.60;;
72087;SDS011;59961;50.232;8.616;2022-09-09T11:29:20;8.10;;;2.63;;
72087;SDS011;59961;50.232;8.616;2022-09-09T11:31:58;5.30;;;1.83;;
72087;SDS011;59961;50.232;8.616;2022-09-09T11:34:37;6.90;;;2.53;;
72087;SDS011;59961;50.232;8.616;2022-09-09T11:39:44;5.55;;;1.92;;
72087;SDS011;59961;50.232;8.616;2022-09-09T11:44:37;5.60;;;1.40;;
72087;SDS011;59961;50.232;8.616;2022-09-09T11:47:02;3.57;;;1.30;;
72087;SDS011;59961;50.232;8.616;2022-09-09T11:49:28;4.07;;;1.50;;
72087;SDS011;59961;50.232;8.616;2022-09-09T11:51:54;4.87;;;1.93;;
72087;SDS011;59961;50.232;8.616;2022-09-09T11:56:54;3.63;;;1.00;;
72087;SDS011;59961;50.232;8.616;2022-09-09T12:01:45;2.87;;;1.10;;
72087;SDS011;59961;50.232;8.616;2022-09-09T12:04:14;3.30;;;0.90;;
72087;SDS011;59961;50.232;8.616;2022-09-09T12:06:42;5.60;;;1.10;;
72087;SDS011;59961;50.232;8.616;2022-09-09T12:11:52;3.72;;;0.80;;
72087;SDS011;59961;50.232;8.616;2022-09-09T12:14:21;3.63;;;0.90;;
72087;SDS011;59961;50.232;8.616;2022-09-09T12:16:47;2.45;;;0.90;;
72087;SDS011;59961;50.232;8.616;2022-09-09T12:19:14;2.83;;;1.25;;
72087;SDS011;59961;50.232;8.616;2022-09-09T12:24:27;4.68;;;1.05;;
72087;SDS011;59961;50.232;8.616;2022-09-09T12:26:57;4.60;;;1.20;;
72087;SDS011;59961;50.232;8.616;2022-09-09T12:29:27;3.92;;;0.90;;
72087;SDS011;59961;50.232;8.616;2022-09-09T12:31:56;3.90;;;1.02;;
72087;SDS011;59961;50.232;8.616;2022-09-09T12:34:41;4.50;;;1.00;;
72087;SDS011;59961;50.232;8.616;2022-09-09T12:37:13;3.85;;;1.20;;
72087;SDS011;59961;50.232;8.616;2022-09-09T12:39:44;6.07;;;1.10;;
72087;SDS011;59961;50.232;8.616;2022-09-09T12:42:19;7.68;;;1.35;;
72087;SDS011;59961;50.232;8.616;2022-09-09T12:44:55;4.90;;;1.27;;
72087;SDS011;59961;50.232;8.616;2022-09-09T12:47:22;5.35;;;1.10;;
72087;SDS011;59961;50.232;8.616;2022-09-09T12:49:48;4.55;;;1.10;;
72087;SDS011;59961;50.232;8.616;2022-09-09T12:54:46;3.83;;;1.27;;
72087;SDS011;59961;50.232;8.616;2022-09-09T12:57:12;2.08;;;0.70;;
72087;SDS011;59961;50.232;8.616;2022-09-09T12:59:39;3.00;;;0.88;;
72087;SDS011;59961;50.232;8.616;2022-09-09T13:04:45;6.03;;;0.60;;
72087;SDS011;59961;50.232;8.616;2022-09-09T13:07:11;1.65;;;0.50;;
72087;SDS011;59961;50.232;8.616;2022-09-09T13:09:37;1.33;;;0.43;;
72087;SDS011;59961;50.232;8.616;2022-09-09T13:12:02;2.90;;;0.70;;
72087;SDS011;59961;50.232;8.616;2022-09-09T13:14:31;2.53;;;0.60;;
72087;SDS011;59961;50.232;8.616;2022-09-09T13:17:01;4.68;;;0.70;;
72087;SDS011;59961;50.232;8.616;2022-09-09T13:19:29;4.55;;;0.70;;
72087;SDS011;59961;50.232;8.616;2022-09-09T13:21:56;3.30;;;0.68;;
72087;SDS011;59961;50.232;8.616;2022-09-09T13:26:59;3.75;;;0.90;;
72087;SDS011;59961;50.232;8.616;2022-09-09T13:29:26;2.65;;;0.52;;
72087;SDS011;59961;50.232;8.616;2022-09-09T13:31:51;4.57;;;0.80;;
72087;SDS011;59961;50.232;8.616;2022-09-09T13:36:57;3.85;;;0.60;;
72087;SDS011;59961;50.232;8.616;2022-09-09T13:39:22;4.80;;;0.75;;
72087;SDS011;59961;50.232;8.616;2022-09-09T13:41:48;1.93;;;0.40;;
72087;SDS011;59961;50.232;8.616;2022-09-09T13:44:27;3.53;;;0.57;;
72087;SDS011;59961;50.232;8.616;2022-09-09T13:47:00;3.35;;;0.80;;
72087;SDS011;59961;50.232;8.616;2022-09-09T13:49:26;2.42;;;0.50;;
72087;SDS011;59961;50.232;8.616;2022-09-09T13:52:01;1.67;;;0.50;;
72087;SDS011;59961;50.232;8.616;2022-09-09T13:54:27;3.27;;;0.70;;
72087;SDS011;59961;50.232;8.616;2022-09-09T13:56:52;5.40;;;0.87;;
72087;SDS011;59961;50.232;8.616;2022-09-09T13:59:19;3.00;;;0.60;;
72087;SDS011;59961;50.232;8.616;2022-09-09T14:01:45;3.33;;;1.07;;
72087;SDS011;59961;50.232;8.616;2022-09-09T14:04:10;2.95;;;0.60;;
72087;SDS011;59961;50.232;8.616;2022-09-09T14:06:35;4.07;;;0.60;;
72087;SDS011;59961;50.232;8.616;2022-09-09T14:09:08;3.43;;;0.63;;
72087;SDS011;59961;50.232;8.616;2022-09-09T14:11:34;1.67;;;0.65;;
72087;SDS011;59961;50.232;8.616;2022-09-09T14:14:00;6.13;;;1.55;;
72087;SDS011;59961;50.232;8.616;2022-09-09T14:16:25;3.80;;;0.73;;
72087;SDS011;59961;50.232;8.616;2022-09-09T14:18:52;3.15;;;0.80;;
72087;SDS011;59961;50.232;8.616;2022-09-09T14:21:18;4.93;;;0.57;;
72087;SDS011;59961;50.232;8.616;2022-09-09T14:23:43;2.67;;;0.90;;
72087;SDS011;59961;50.232;8.616;2022-09-09T14:26:08;2.65;;;0.60;;
72087;SDS011;59961;50.232;8.616;2022-09-09T14:28:34;4.95;;;1.10;;
72087;SDS011;59961;50.232;8.616;2022-09-09T14:31:00;2.92;;;0.77;;
72087;SDS011;59961;50.232;8.616;2022-09-09T14:33:26;2.90;;;1.00;;
72087;SDS011;59961;50.232;8.616;2022-09-09T14:35:58;4.07;;;0.70;;
72087;SDS011;59961;50.232;8.616;2022-09-09T14:38:24;2.15;;;0.52;;
72087;SDS011;59961;50.232;8.616;2022-09-09T14:40:49;2.57;;;0.50;;
72087;SDS011;59961;50.232;8.616;2022-09-09T14:43:14;2.80;;;0.50;;
72087;SDS011;59961;50.232;8.616;2022-09-09T14:45:39;3.93;;;0.80;;
72087;SDS011;59961;50.232;8.616;2022-09-09T14:48:04;3.33;;;0.70;;
72087;SDS011;59961;50.232;8.616;2022-09-09T14:50:30;1.63;;;0.53;;
72087;SDS011;59961;50.232;8.616;2022-09-09T14:52:55;4.30;;;0.90;;
72087;SDS011;59961;50.232;8.616;2022-09-09T14:55:20;3.47;;;0.88;;
72087;SDS011;59961;50.232;8.616;2022-09-09T14:57:46;3.75;;;1.15;;
72087;SDS011;59961;50.232;8.616;2022-09-09T15:00:11;6.70;;;1.27;;
72087;SDS011;59961;50.232;8.616;2022-09-09T15:02:37;6.33;;;1.43;;
72087;SDS011;59961;50.232;8.616;2022-09-09T15:05:03;4.73;;;1.07;;
72087;SDS011;59961;50.232;8.616;2022-09-09T15:07:29;3.20;;;1.13;;
72087;SDS011;59961;50.232;8.616;2022-09-09T15:09:54;1.80;;;0.70;;
72087;SDS011;59961;50.232;8.616;2022-09-09T15:12:20;3.57;;;0.90;;
72087;SDS011;59961;50.232;8.616;2022-09-09T15:14:45;3.22;;;1.10;;
72087;SDS011;59961;50.232;8.616;2022-09-09T15:17:11;2.53;;;1.00;;
72087;SDS011;59961;50.232;8.616;2022-09-09T15:19:36;4.33;;;0.80;;
72087;SDS011;59961;50.232;8.616;2022-09-09T15:22:02;5.55;;;1.10;;
72087;SDS011;59961;50.232;8.616;2022-09-09T15:24:28;6.40;;;1.10;;
72087;SDS011;59961;50.232;8.616;2022-09-09T15:26:53;5.68;;;0.88;;
72087;SDS011;59961;50.232;8.616;2022-09-09T15:29:18;3.60;;;0.90;;
72087;SDS011;59961;50.232;8.616;2022-09-09T15:31:44;3.37;;;1.13;;
72087;SDS011;59961;50.232;8.616;2022-09-09T15:34:09;5.25;;;1.13;;
72087;SDS011;59961;50.232;8.616;2022-09-09T15:36:35;2.83;;;0.70;;
72087;SDS011;59961;50.232;8.616;2022-09-09T15:39:01;2.42;;;0.80;;
72087;SDS011;59961;50.232;8.616;2022-09-09T15:41:27;6.20;;;0.80;;
72087;SDS011;59961;50.232;8.616;2022-09-09T15:43:53;3.80;;;0.73;;
72087;SDS011;59961;50.232;8.616;2022-09-09T15:48:49;3.38;;;0.95;;
72087;SDS011;59961;50.232;8.616;2022-09-09T15:51:15;3.53;;;0.73;;
72087;SDS011;59961;50.232;8.616;2022-09-09T15:53:40;4.78;;;1.05;;
72087;SDS011;59961;50.232;8.616;2022-09-09T15:56:06;1.40;;;0.60;;
72087;SDS011;59961;50.232;8.616;2022-09-09T15:58:31;1.95;;;1.00;;
72087;SDS011;59961;50.232;8.616;2022-09-09T16:01:03;2.13;;;0.60;;
72087;SDS011;59961;50.232;8.616;2022-09-09T16:03:29;2.15;;;0.65;;
72087;SDS011;59961;50.232;8.616;2022-09-09T16:05:54;2.40;;;0.53;;
72087;SDS011;59961;50.232;8.616;2022-09-09T16:08:20;4.57;;;0.60;;
72087;SDS011;59961;50.232;8.616;2022-09-09T16:10:45;3.10;;;0.70;;
72087;SDS011;59961;50.232;8.616;2022-09-09T16:13:10;2.73;;;0.63;;
72087;SDS011;59961;50.232;8.616;2022-09-09T16:15:38;1.48;;;0.60;;
72087;SDS011;59961;50.232;8.616;2022-09-09T16:18:03;6.63;;;0.70;;
72087;SDS011;59961;50.232;8.616;2022-09-09T16:20:28;4.40;;;0.90;;
72087;SDS011;59961;50.232;8.616;2022-09-09T16:22:53;1.73;;;0.60;;